Time;durP1;ratioP1;P1;durP2;ratioP2;P2;SDS_P1;SDS_P2;PMS_P1;PMS_P2;Temp;Humidity;BMP_temperature;BMP_pressure;BME280_temperature;BME280_humidity;BME280_pressure;Samples;Min_cycle;Max_cycle;Signal;HPM_P1;HPM_P2
2022/06/28 00:01:50;;;;;;;16.27;14.98;;;;;;;27.90;49.01;100055.91;4995108;28;101322;-80
2022/06/28 00:04:16;;;;;;;17.60;16.13;;;;;;;27.86;49.17;100041.06;5012645;28;100919;-80
2022/06/28 00:06:42;;;;;;;17.02;15.57;;;;;;;27.74;49.32;100041.38;5011492;28;97354;-80
2022/06/28 00:09:08;;;;;;;16.17;14.88;;;;;;;27.76;49.32;100033.97;5012614;28;97074;-80
2022/06/28 00:11:33;;;;;;;16.65;15.27;;;;;;;27.81;49.34;100043.41;5024370;28;97690;-80
2022/06/28 00:13:59;;;;;;;17.08;15.75;;;;;;;27.82;49.38;100040.56;4994511;28;101628;-80
2022/06/28 00:16:24;;;;;;;18.10;16.58;;;;;;;27.73;49.27;100045.09;5029086;28;96652;-80
2022/06/28 00:18:51;;;;;;;17.05;15.60;;;;;;;27.69;49.55;100051.00;5011659;28;97048;-80
2022/06/28 00:21:17;;;;;;;16.75;15.60;;;;;;;27.69;49.72;100064.47;5011683;28;101685;-80
2022/06/28 00:23:43;;;;;;;17.23;16.02;;;;;;;27.51;50.14;100061.94;5011169;28;101033;-81
2022/06/28 00:26:10;;;;;;;17.27;16.02;;;;;;;27.69;50.00;100111.16;5028514;28;96827;-80
2022/06/28 00:28:37;;;;;;;17.48;15.85;;;;;;;27.75;49.80;100097.00;5012002;28;96783;-80
2022/06/28 00:31:03;;;;;;;16.67;15.43;;;;;;;27.66;49.71;100078.28;5006913;28;101259;-81
2022/06/28 00:33:29;;;;;;;16.52;15.52;;;;;;;27.85;49.72;100109.50;4993160;28;101653;-81
2022/06/28 00:35:55;;;;;;;16.27;15.10;;;;;;;27.92;49.28;100118.59;5011919;28;97748;-81
2022/06/28 00:38:21;;;;;;;16.98;15.65;;;;;;;27.98;49.13;100120.59;5012376;28;97150;-81
2022/06/28 00:40:49;;;;;;;17.27;16.15;;;;;;;27.97;49.17;100116.25;4988127;28;101013;-81
2022/06/28 00:43:16;;;;;;;17.58;16.20;;;;;;;27.93;49.23;100125.69;4996148;28;97475;-81
2022/06/28 00:45:43;;;;;;;17.63;16.42;;;;;;;27.95;49.31;100129.03;5028697;28;97351;-81
2022/06/28 00:48:13;;;;;;;17.70;16.17;;;;;;;27.90;49.21;100121.47;4982624;28;97278;-80
2022/06/28 00:50:39;;;;;;;18.23;16.92;;;;;;;28.03;49.20;100134.44;5010780;28;101541;-81
2022/06/28 00:53:10;;;;;;;18.10;16.90;;;;;;;28.05;49.28;100147.78;4992929;28;101661;-81
2022/06/28 00:55:36;;;;;;;17.58;16.42;;;;;;;28.09;49.20;100143.72;5001136;28;96841;-81
2022/06/28 00:58:03;;;;;;;18.20;16.80;;;;;;;28.08;49.17;100152.81;5007459;28;97254;-81
2022/06/28 01:00:30;;;;;;;17.83;16.25;;;;;;;28.14;48.96;100139.50;4992836;28;100147;-81
2022/06/28 01:02:57;;;;;;;17.02;15.70;;;;;;;28.08;48.93;100123.97;5006505;28;102249;-81
2022/06/28 01:05:22;;;;;;;17.50;16.30;;;;;;;28.21;49.02;100136.94;4994061;28;97382;-80
2022/06/28 01:07:48;;;;;;;16.88;15.40;;;;;;;28.19;49.00;100131.72;5027782;28;97266;-81
2022/06/28 01:10:14;;;;;;;18.40;16.83;;;;;;;28.21;49.68;100135.09;4990003;28;101350;-81
2022/06/28 01:12:40;;;;;;;17.80;16.60;;;;;;;28.21;49.90;100145.03;5000494;28;101364;-81
2022/06/28 01:15:06;;;;;;;17.48;16.25;;;;;;;28.18;50.18;100158.88;5027143;28;97130;-81
2022/06/28 01:17:46;;;;;;;;;;;;;;;28.15;50.29;100153.81;5008930;28;97289;-81
2022/06/28 01:20:32;;;;;;;17.60;16.20;;;;;;;28.20;50.27;100146.91;4998803;28;101755;-81
2022/06/28 01:23:10;;;;;;;18.38;17.10;;;;;;;28.05;50.63;100131.59;4990934;28;101227;-81
2022/06/28 01:25:36;;;;;;;19.08;17.15;;;;;;;28.04;50.85;100141.50;5012205;28;96732;-81
2022/06/28 01:28:02;;;;;;;17.90;16.60;;;;;;;28.04;50.95;100136.09;4985055;28;96872;-81
2022/06/28 01:30:27;;;;;;;17.08;15.88;;;;;;;28.15;50.39;100138.47;5008325;28;101555;-81
2022/06/28 01:32:59;;;;;;;17.83;16.60;;;;;;;28.27;50.36;100146.22;4996163;28;101201;-81
2022/06/28 01:35:25;;;;;;;17.83;16.63;;;;;;;28.13;50.67;100163.94;5007109;28;97875;-81
2022/06/28 01:37:50;;;;;;;17.00;15.88;;;;;;;28.06;50.82;100160.22;4990517;28;97353;-81
2022/06/28 01:40:18;;;;;;;18.65;17.13;;;;;;;28.12;50.69;100156.84;4997257;28;100835;-81
2022/06/28 01:42:45;;;;;;;17.77;16.25;;;;;;;27.95;51.06;100156.84;4995040;28;101591;-81
2022/06/28 01:45:11;;;;;;;17.48;16.05;;;;;;;28.04;51.04;100151.47;5012524;28;96859;-81
2022/06/28 01:47:44;;;;;;;17.95;16.50;;;;;;;27.93;51.24;100150.81;4998480;28;96895;-81
2022/06/28 01:50:18;;;;;;;17.90;16.40;;;;;;;28.03;51.14;100160.56;5028997;28;98112;-81
2022/06/28 01:52:47;;;;;;;17.75;16.33;;;;;;;27.92;51.18;100161.75;4992875;28;101909;-81
2022/06/28 01:55:36;;;;;;;18.60;17.03;;;;;;;28.04;50.79;100164.94;4997850;28;96900;-81
2022/06/28 01:58:06;;;;;;;18.67;17.27;;;;;;;27.98;51.22;100177.25;5010989;28;96941;-81
2022/06/28 02:00:36;;;;;;;17.58;16.40;;;;;;;27.86;51.07;100176.75;5013451;28;101689;-81
2022/06/28 02:03:02;;;;;;;17.58;15.95;;;;;;;27.90;50.82;100164.63;4998202;28;101266;-81
2022/06/28 02:05:54;;;;;;;17.50;16.08;;;;;;;27.90;50.72;100185.38;4996811;28;97290;-81
2022/06/28 02:08:21;;;;;;;17.92;16.52;;;;;;;27.89;50.92;100179.09;4980587;28;96865;-81
2022/06/28 02:11:12;;;;;;;18.92;17.15;;;;;;;27.93;50.71;100191.25;5012016;28;99434;-81
2022/06/28 02:13:47;;;;;;;17.55;16.33;;;;;;;27.85;50.58;100199.34;4994486;28;101638;-81
2022/06/28 02:16:13;;;;;;;17.95;16.65;;;;;;;27.81;50.68;100213.31;5011417;28;96726;-81
2022/06/28 02:18:38;;;;;;;17.70;16.42;;;;;;;27.90;50.36;100218.56;5011474;28;96673;-81
2022/06/28 02:21:06;;;;;;;17.48;16.27;;;;;;;28.01;50.10;100222.78;5011005;28;101146;-81
2022/06/28 02:23:32;;;;;;;17.85;16.58;;;;;;;27.86;50.23;100224.44;5011757;28;101532;-81
2022/06/28 02:25:57;;;;;;;18.17;16.60;;;;;;;27.71;50.27;100227.75;5007511;28;96883;-81
2022/06/28 02:28:23;;;;;;;18.30;16.85;;;;;;;27.59;50.47;100218.31;4995931;28;96895;-82
2022/06/28 02:30:49;;;;;;;18.02;16.42;;;;;;;27.69;50.68;100231.63;5011890;28;101453;-81
2022/06/28 02:33:15;;;;;;;18.25;16.38;;;;;;;27.64;50.26;100239.38;5014699;28;101551;-81
2022/06/28 02:41:09;;;;;;;18.08;16.77;;;;;;;27.79;49.60;100255.81;5025548;28;97995;-82
2022/06/28 02:43:34;;;;;;;17.48;16.15;;;;;;;27.85;49.31;100269.47;4997597;28;101639;-82
2022/06/28 02:46:00;;;;;;;17.83;16.48;;;;;;;27.86;49.15;100268.44;5014068;28;96844;-82
2022/06/28 02:48:25;;;;;;;18.10;16.58;;;;;;;27.81;49.46;100267.25;5014571;28;97054;-82
2022/06/28 02:50:51;;;;;;;18.60;17.10;;;;;;;27.91;49.42;100271.50;4996609;28;101142;-82
2022/06/28 02:53:16;;;;;;;18.65;17.02;;;;;;;27.85;49.42;100280.25;5014353;28;101032;-81
2022/06/28 02:55:42;;;;;;;17.75;16.50;;;;;;;27.91;49.85;100290.38;5030856;27;96673;-82
2022/06/28 02:58:07;;;;;;;18.17;16.98;;;;;;;27.92;49.83;100310.09;4997002;28;97344;-82
2022/06/28 03:00:33;;;;;;;17.95;16.60;;;;;;;27.97;49.75;100313.13;5014054;28;101578;-82
2022/06/28 03:02:59;;;;;;;16.90;15.80;;;;;;;27.89;50.45;100326.59;4996408;28;99505;-82
2022/06/28 03:05:24;;;;;;;17.60;16.40;;;;;;;27.84;50.39;100318.16;5029178;28;96875;-82
2022/06/28 03:07:51;;;;;;;17.85;16.20;;;;;;;27.84;50.42;100316.31;4997285;28;96973;-82
2022/06/28 03:10:19;;;;;;;18.33;16.95;;;;;;;27.74;50.39;100283.22;5013358;28;102030;-82
2022/06/28 03:12:45;;;;;;;19.15;16.98;;;;;;;27.77;51.14;100272.09;5012724;28;101275;-81
2022/06/28 03:15:11;;;;;;;23.98;17.70;;;;;;;27.64;53.45;100245.63;4996147;28;98037;-82
2022/06/28 03:17:38;;;;;;;23.73;18.17;;;;;;;27.46;55.45;100261.03;5014000;28;97511;-82
2022/06/28 03:20:05;;;;;;;19.08;17.17;;;;;;;27.35;55.99;100255.97;5010337;28;101542;-82
2022/06/28 03:22:30;;;;;;;18.92;17.25;;;;;;;27.28;56.21;100259.28;5010543;28;99905;-81
2022/06/28 03:24:56;;;;;;;18.25;16.40;;;;;;;27.09;56.84;100256.81;5013282;28;97160;-81
2022/06/28 03:27:22;;;;;;;18.98;17.23;;;;;;;27.05;57.09;100272.47;5013984;28;97269;-81
2022/06/28 03:29:48;;;;;;;18.23;16.92;;;;;;;27.02;57.23;100274.63;5019560;28;101241;-81
2022/06/28 03:32:20;;;;;;;18.58;17.27;;;;;;;26.99;57.66;100283.03;5009754;28;101408;-82
2022/06/28 03:34:45;;;;;;;18.92;17.38;;;;;;;26.98;57.08;100294.81;5012937;28;96804;-81
2022/06/28 03:37:16;;;;;;;;;;;;;;;26.83;57.99;100303.47;5014862;28;96847;-81
2022/06/28 03:39:45;;;;;;;18.10;16.80;;;;;;;26.87;57.33;100307.53;5028797;28;101378;-81
2022/06/28 03:42:11;;;;;;;17.67;16.58;;;;;;;26.85;57.69;100314.94;4997158;28;101016;-81
2022/06/28 03:44:39;;;;;;;17.95;16.67;;;;;;;26.70;57.82;100310.25;5011314;28;96867;-81
2022/06/28 03:47:06;;;;;;;19.67;16.83;;;;;;;26.75;58.03;100322.25;5028020;28;97044;-81
2022/06/28 03:50:04;;;;;;;18.40;16.77;;;;;;;26.75;57.90;100333.00;4974318;28;97541;-81
2022/06/28 03:52:51;;;;;;;18.98;17.60;;;;;;;26.70;57.98;100327.25;5015456;28;100977;-81
2022/06/28 03:55:35;;;;;;;17.67;16.52;;;;;;;26.69;58.05;100343.56;5012933;28;96713;-82
2022/06/28 03:58:00;;;;;;;17.98;16.52;;;;;;;26.73;57.99;100353.00;5012122;28;96973;-82
2022/06/28 04:00:26;;;;;;;19.17;17.45;;;;;;;26.66;57.70;100327.72;4995796;28;101102;-81
2022/06/28 04:02:51;;;;;;;19.17;17.60;;;;;;;26.67;57.93;100337.50;5010063;28;100934;-81
2022/06/28 04:05:28;;;;;;;19.25;17.70;;;;;;;26.67;58.07;100318.66;5011765;28;97720;-81
2022/06/28 04:07:56;;;;;;;19.15;17.58;;;;;;;26.58;58.89;100313.19;5012212;28;96796;-82
2022/06/28 04:10:34;;;;;;;19.85;18.27;;;;;;;26.58;58.83;100312.34;5012158;28;101550;-81
2022/06/28 04:13:09;;;;;;;19.00;17.70;;;;;;;26.56;58.67;100304.44;5010364;28;100467;-81
2022/06/28 04:15:35;;;;;;;18.75;17.35;;;;;;;26.59;58.50;100316.75;5008231;28;97149;-81
2022/06/28 04:18:06;;;;;;;19.13;17.92;;;;;;;26.56;58.85;100322.44;5029386;27;97701;-82
2022/06/28 04:20:54;;;;;;;19.08;17.67;;;;;;;26.56;58.60;100325.16;5027114;28;97385;-81
2022/06/28 04:23:19;;;;;;;19.38;18.08;;;;;;;26.55;59.15;100315.34;5010886;28;101724;-82
2022/06/28 04:25:45;;;;;;;19.52;18.13;;;;;;;26.47;59.43;100320.63;4996156;28;96808;-82
2022/06/28 04:28:49;;;;;;;18.92;17.73;;;;;;;26.46;59.67;100322.47;5020609;28;96907;-81
2022/06/28 04:31:20;;;;;;;20.05;18.25;;;;;;;26.54;59.15;100327.13;4992918;28;101404;-81
2022/06/28 04:33:46;;;;;;;19.70;18.17;;;;;;;26.46;59.40;100338.63;5006812;28;100412;-81
2022/06/28 04:36:12;;;;;;;19.25;17.85;;;;;;;26.51;58.96;100333.66;4996324;28;96859;-82
2022/06/28 04:38:43;;;;;;;19.55;18.27;;;;;;;26.48;59.78;100333.09;4997334;28;96809;-82
2022/06/28 04:41:15;;;;;;;19.02;17.83;;;;;;;26.43;59.49;100318.25;5029324;28;101784;-82
2022/06/28 04:44:07;;;;;;;19.38;17.98;;;;;;;26.35;59.95;100310.09;5024961;28;98930;-82
2022/06/28 04:46:39;;;;;;;19.13;17.75;;;;;;;26.34;60.35;100308.41;5014294;28;96763;-81
2022/06/28 04:49:09;;;;;;;19.70;18.38;;;;;;;26.26;59.77;100285.97;5013623;28;96744;-81
2022/06/28 04:51:41;;;;;;;19.25;17.80;;;;;;;26.30;60.40;100290.91;5011417;28;101290;-81
2022/06/28 04:54:09;;;;;;;20.10;18.60;;;;;;;26.28;60.20;100276.75;5010215;28;99224;-81
2022/06/28 04:56:54;;;;;;;19.23;17.92;;;;;;;26.34;60.19;100296.81;5011824;28;96905;-83
2022/06/28 04:59:21;;;;;;;19.38;18.10;;;;;;;26.44;60.11;100302.94;5011913;28;97244;-82
2022/06/28 05:01:46;;;;;;;20.77;19.27;;;;;;;26.42;60.29;100307.66;5010790;28;101629;-83
2022/06/28 05:04:13;;;;;;;19.92;18.48;;;;;;;26.34;60.81;100296.81;5012000;28;100408;-83
2022/06/28 05:06:57;;;;;;;19.48;17.98;;;;;;;26.33;60.27;100292.44;5012068;28;97263;-81
2022/06/28 05:09:22;;;;;;;20.05;18.75;;;;;;;26.41;60.47;100314.03;5012047;28;98208;-82
2022/06/28 05:11:49;;;;;;;19.25;18.05;;;;;;;26.37;60.19;100299.19;4995115;28;101835;-81
2022/06/28 05:14:18;;;;;;;20.05;18.55;;;;;;;26.46;60.35;100319.78;5012887;28;100835;-81
2022/06/28 05:16:45;;;;;;;19.70;18.23;;;;;;;26.45;60.17;100296.59;5010814;28;97076;-81
2022/06/28 05:19:12;;;;;;;18.98;17.63;;;;;;;26.65;59.72;100316.13;5011484;28;96988;-82
2022/06/28 05:21:37;;;;;;;18.75;17.55;;;;;;;26.64;59.89;100320.63;4991396;28;101479;-81
2022/06/28 05:24:04;;;;;;;19.10;17.63;;;;;;;26.61;nan;100330.88;4994102;28;101154;-79
2022/06/28 05:26:52;;;;;;;19.85;18.10;;;;;;;26.68;59.59;100333.81;5026923;28;96775;-81
2022/06/28 05:29:20;;;;;;;19.25;17.70;;;;;;;26.77;59.84;100354.41;5012646;28;96877;-80
2022/06/28 05:31:46;;;;;;;19.50;17.88;;;;;;;26.79;59.42;100347.88;5003338;28;101649;-80
2022/06/28 05:34:12;;;;;;;18.60;17.40;;;;;;;26.83;59.23;100353.78;5023298;28;97419;-80
2022/06/28 05:36:38;;;;;;;19.20;17.63;;;;;;;26.84;59.46;100358.16;5005881;28;97173;-80
2022/06/28 05:39:05;;;;;;;19.00;17.38;;;;;;;26.86;58.91;100359.69;4991634;28;97075;-80
2022/06/28 05:41:32;;;;;;;19.27;17.65;;;;;;;26.67;58.74;100332.94;4999817;28;101615;-80
2022/06/28 05:43:59;;;;;;;19.35;17.83;;;;;;;26.84;58.68;100364.38;5003674;28;101644;-81
2022/06/28 05:46:25;;;;;;;18.90;17.20;;;;;;;26.77;58.97;100360.63;4992955;28;97241;-84
2022/06/28 05:48:51;;;;;;;19.30;17.38;;;;;;;26.80;58.55;100362.19;4995126;28;98149;-84
2022/06/28 05:51:16;;;;;;;18.67;17.27;;;;;;;26.73;58.40;100359.25;4994781;28;101429;-79
2022/06/28 05:53:42;;;;;;;19.92;18.38;;;;;;;26.75;58.63;100372.56;5000555;28;101124;-83
2022/06/28 05:56:07;;;;;;;20.30;18.45;;;;;;;26.77;58.61;100382.19;5005439;27;97555;-86
2022/06/28 05:58:33;;;;;;;21.10;19.60;;;;;;;26.71;58.40;100381.97;4990812;28;97106;-84
2022/06/28 06:00:58;;;;;;;21.45;19.38;;;;;;;26.76;58.55;100395.78;5010654;28;101821;-85
2022/06/28 06:03:24;;;;;;;21.63;19.38;;;;;;;26.75;58.74;100399.47;4995224;28;101653;-85
2022/06/28 06:05:50;;;;;;;21.38;19.77;;;;;;;26.74;58.37;100392.41;4985331;28;96912;-84
2022/06/28 06:08:16;;;;;;;20.90;19.15;;;;;;;26.58;58.56;100380.47;4994489;28;96972;-84
2022/06/28 06:10:43;;;;;;;20.50;18.55;;;;;;;26.71;58.51;100392.72;5010020;28;101651;-84
2022/06/28 06:13:09;;;;;;;21.58;20.02;;;;;;;26.70;58.62;100404.47;5010673;28;100560;-85
2022/06/28 06:15:34;;;;;;;21.80;19.95;;;;;;;26.65;58.62;100396.88;5010610;28;96851;-85
2022/06/28 06:17:59;;;;;;;20.80;19.48;;;;;;;26.42;58.47;100366.88;5028390;28;96786;-84
2022/06/28 06:20:25;;;;;;;21.25;19.42;;;;;;;26.56;58.40;100403.19;5011313;28;100291;-84
2022/06/28 06:22:50;;;;;;;20.98;19.30;;;;;;;26.58;58.43;100407.41;5011316;28;101770;-85
2022/06/28 06:25:36;;;;;;;19.95;18.45;;;;;;;26.60;58.09;100416.19;5027335;28;96891;-83
2022/06/28 06:28:01;;;;;;;20.80;19.13;;;;;;;26.41;58.70;100410.91;4991644;28;97395;-85
2022/06/28 06:30:27;;;;;;;20.73;18.85;;;;;;;26.41;58.20;100424.34;4994617;27;101812;-85
2022/06/28 06:33:22;;;;;;;19.67;18.02;;;;;;;26.38;58.15;100430.91;4957533;27;97720;-84
2022/06/28 06:35:50;;;;;;;19.70;18.20;;;;;;;26.41;58.20;100436.00;5028119;28;97191;-84
2022/06/28 06:38:16;;;;;;;18.95;17.50;;;;;;;26.47;57.97;100445.31;5014177;28;97487;-84
2022/06/28 06:40:43;;;;;;;19.55;18.05;;;;;;;26.33;58.05;100437.75;4998624;28;99252;-84
2022/06/28 06:43:09;;;;;;;20.00;18.70;;;;;;;26.41;57.90;100462.03;5011188;28;99861;-84
2022/06/28 06:45:35;;;;;;;19.30;18.00;;;;;;;26.34;57.66;100461.78;5013081;28;96829;-84
2022/06/28 06:48:02;;;;;;;19.67;18.13;;;;;;;26.23;58.13;100461.16;5008664;28;97097;-84
2022/06/28 06:50:28;;;;;;;19.02;17.48;;;;;;;26.35;57.62;100481.47;5028723;28;98235;-84
2022/06/28 06:52:53;;;;;;;19.63;17.88;;;;;;;26.32;57.74;100484.47;5024788;28;97937;-88
2022/06/28 06:55:19;;;;;;;20.08;18.38;;;;;;;26.33;57.54;100489.69;4999755;28;97079;-92
2022/06/28 06:57:45;;;;;;;19.67;18.35;;;;;;;26.21;57.40;100477.47;5015028;28;96995;-93
2022/06/28 07:00:11;;;;;;;18.25;17.05;;;;;;;26.17;57.14;100498.41;4992033;28;100474;-86
2022/06/28 07:02:41;;;;;;;18.98;17.67;;;;;;;26.17;56.89;100502.94;5003659;28;101068;-87
2022/06/28 07:05:07;;;;;;;18.05;16.95;;;;;;;26.14;56.73;100500.56;5011575;28;97267;-85
2022/06/28 07:07:32;;;;;;;17.65;16.52;;;;;;;26.18;56.66;100513.56;5014624;28;96904;-85
2022/06/28 07:09:58;;;;;;;17.85;16.52;;;;;;;26.11;56.41;100512.44;5014097;28;101363;-87
2022/06/28 07:12:24;;;;;;;19.20;17.52;;;;;;;26.10;56.47;100518.00;5014213;28;100752;-85
2022/06/28 07:14:50;;;;;;;19.13;17.73;;;;;;;26.05;56.41;100513.03;4997272;28;97223;-85
2022/06/28 07:17:17;;;;;;;19.85;18.20;;;;;;;26.12;56.23;100524.94;4996984;28;97109;-84
2022/06/28 07:19:43;;;;;;;19.20;17.77;;;;;;;26.03;56.16;100524.94;5014126;28;101573;-85
2022/06/28 07:22:08;;;;;;;19.23;17.83;;;;;;;25.92;56.80;100518.75;4997347;28;101640;-85
2022/06/28 07:24:36;;;;;;;18.52;17.30;;;;;;;25.91;56.53;100519.75;4991860;28;96871;-85
2022/06/28 07:27:03;;;;;;;18.65;17.38;;;;;;;25.90;56.13;100528.81;4989992;28;96886;-84
2022/06/28 07:29:29;;;;;;;19.63;18.33;;;;;;;25.99;56.40;100539.69;5026101;28;101542;-86
2022/06/28 07:31:54;;;;;;;17.83;16.73;;;;;;;26.23;55.61;100534.63;5013678;28;100714;-94
2022/06/28 07:34:20;;;;;;;18.45;16.95;;;;;;;26.17;55.43;100532.53;5016449;28;96863;-93
2022/06/28 07:36:46;;;;;;;18.83;17.50;;;;;;;25.94;55.54;100515.91;5002196;28;96774;-95
2022/06/28 07:39:11;;;;;;;18.45;17.23;;;;;;;26.02;55.72;100531.31;4998843;28;101507;-92
2022/06/28 07:41:55;;;;;;;18.17;16.77;;;;;;;26.05;55.78;100536.41;5016691;28;96662;-92
2022/06/28 07:44:41;;;;;;;18.00;16.80;;;;;;;26.05;55.47;100534.56;5029454;28;96837;-96
2022/06/28 07:47:06;;;;;;;17.55;16.40;;;;;;;25.99;55.40;100537.00;5010313;28;98404;-85
2022/06/28 07:52:34;;;;;;;18.05;16.75;;;;;;;26.11;54.79;100536.66;5020067;28;101487;-85
2022/06/28 07:55:06;;;;;;;18.45;16.60;;;;;;;26.31;54.24;100542.81;5012096;28;97213;-84
2022/06/28 07:57:58;;;;;;;17.77;16.48;;;;;;;26.70;53.58;100547.16;5021716;28;97183;-85
2022/06/28 08:00:25;;;;;;;18.20;16.80;;;;;;;26.58;53.36;100536.59;5009393;28;101113;-84
2022/06/28 08:03:04;;;;;;;16.75;15.43;;;;;;;26.67;52.45;100534.84;4998558;28;101110;-86
2022/06/28 08:05:30;;;;;;;16.80;15.70;;;;;;;27.39;50.97;100527.66;5023432;28;96781;-86
2022/06/28 08:07:56;;;;;;;16.70;15.60;;;;;;;27.63;49.98;100515.38;4995981;28;96963;-85
2022/06/28 08:10:22;;;;;;;16.65;15.65;;;;;;;27.86;49.53;100523.81;4993677;28;101139;-86
2022/06/28 08:12:49;;;;;;;16.80;15.57;;;;;;;27.47;50.09;100527.75;5023358;28;101540;-85
2022/06/28 08:15:15;;;;;;;16.52;15.52;;;;;;;27.23;51.21;100541.03;5009581;28;97727;-83
2022/06/28 08:17:40;;;;;;;16.63;15.30;;;;;;;27.29;50.39;100535.00;4990476;28;98775;-79
2022/06/28 08:20:06;;;;;;;17.38;16.08;;;;;;;27.42;50.44;100545.38;5015285;28;101476;-81
2022/06/28 08:22:33;;;;;;;17.83;16.60;;;;;;;27.55;50.24;100540.44;4992728;28;101354;-83
2022/06/28 08:25:00;;;;;;;17.73;16.42;;;;;;;27.84;50.27;100548.25;5008392;28;96924;-85
2022/06/28 08:27:25;;;;;;;16.73;15.63;;;;;;;28.11;49.96;100547.22;5009934;28;97671;-84
2022/06/28 08:29:51;;;;;;;17.45;16.17;;;;;;;28.41;49.73;100551.28;5008551;28;101070;-84
2022/06/28 08:32:20;;;;;;;18.63;16.67;;;;;;;28.60;49.24;100560.13;4983096;28;100118;-84
2022/06/28 08:34:46;;;;;;;17.95;16.75;;;;;;;28.49;49.06;100536.97;4990853;28;97455;-80
2022/06/28 08:37:12;;;;;;;17.45;16.23;;;;;;;28.60;49.15;100547.47;5009715;28;96787;-80
2022/06/28 08:39:37;;;;;;;17.23;16.05;;;;;;;28.53;48.88;100546.41;5011825;28;98283;-80
2022/06/28 08:42:04;;;;;;;17.20;15.80;;;;;;;28.51;48.68;100548.47;5011696;28;101016;-81
2022/06/28 08:44:37;;;;;;;17.85;16.27;;;;;;;28.52;49.19;100549.31;5029104;28;97906;-80
2022/06/28 08:47:04;;;;;;;17.35;16.15;;;;;;;28.34;49.08;100542.13;5011963;28;97011;-82
2022/06/28 08:49:58;;;;;;;18.08;16.77;;;;;;;28.33;49.24;100563.84;4992079;28;101698;-80
2022/06/28 08:52:24;;;;;;;19.92;18.58;;;;;;;28.21;49.92;100564.13;5018819;28;100629;-79
2022/06/28 08:54:50;;;;;;;19.15;17.60;;;;;;;28.14;50.23;100563.09;4993837;28;97010;-79
2022/06/28 08:57:21;;;;;;;19.70;18.20;;;;;;;28.04;50.35;100554.25;5012217;28;97473;-79
2022/06/28 08:59:48;;;;;;;18.83;17.42;;;;;;;27.96;50.80;100575.81;5006325;28;98598;-79
2022/06/28 09:02:15;;;;;;;18.00;16.80;;;;;;;27.84;50.85;100587.84;4994423;28;101313;-78
2022/06/28 09:04:45;;;;;;;17.98;16.45;;;;;;;27.67;50.95;100586.88;4997769;28;97686;-78
2022/06/28 09:07:10;;;;;;;17.27;15.98;;;;;;;27.06;52.09;100589.31;5001337;28;96921;-78
2022/06/28 09:09:36;;;;;;;16.83;15.63;;;;;;;26.97;52.46;100595.63;4998176;28;101307;-78
2022/06/28 09:12:02;;;;;;;16.83;15.63;;;;;;;26.95;52.64;100586.84;4994745;28;100743;-78
2022/06/28 09:14:30;;;;;;;14.88;13.98;;;;;;;27.06;52.33;100591.16;5007142;28;97279;-78
2022/06/28 09:16:58;;;;;;;16.25;15.18;;;;;;;27.10;52.62;100609.53;5007561;28;97557;-77
2022/06/28 09:19:35;;;;;;;17.00;15.70;;;;;;;27.02;52.02;100604.09;4999361;28;97935;-78
2022/06/28 09:22:03;;;;;;;16.00;15.05;;;;;;;27.13;52.09;100610.25;4994838;28;101333;-77
2022/06/28 09:24:29;;;;;;;16.00;14.80;;;;;;;27.15;52.50;100610.97;4995004;28;96882;-78
2022/06/28 09:26:56;;;;;;;16.20;15.10;;;;;;;27.05;52.30;100598.41;5003640;28;96931;-77
2022/06/28 09:29:22;;;;;;;15.93;14.90;;;;;;;27.21;51.96;100621.16;4986136;28;101029;-77
2022/06/28 09:31:47;;;;;;;15.88;14.77;;;;;;;27.21;51.81;100621.16;5010736;28;97463;-78
2022/06/28 09:34:13;;;;;;;15.90;14.93;;;;;;;27.23;51.72;100622.69;5027564;28;97209;-78
2022/06/28 09:36:57;;;;;;;16.05;14.93;;;;;;;27.44;51.16;100621.56;5011702;28;97306;-77
2022/06/28 09:39:27;;;;;;;16.30;15.20;;;;;;;27.75;50.62;100622.84;4994866;28;101601;-76
2022/06/28 09:41:53;;;;;;;16.90;15.70;;;;;;;27.91;50.33;100624.00;5028725;28;97511;-77
2022/06/28 09:44:29;;;;;;;15.40;14.48;;;;;;;28.28;49.71;100622.91;5022434;28;97343;-78
2022/06/28 09:46:57;;;;;;;16.45;15.35;;;;;;;28.49;48.89;100614.44;5026028;28;96747;-76
2022/06/28 09:49:28;;;;;;;17.25;16.05;;;;;;;28.55;49.02;100630.81;4985741;28;101540;-77
2022/06/28 09:51:55;;;;;;;16.85;15.55;;;;;;;28.21;49.38;100639.69;4994540;28;101031;-77
2022/06/28 09:54:23;;;;;;;16.00;14.93;;;;;;;28.08;49.30;100635.75;5010165;28;96867;-76
2022/06/28 09:56:54;;;;;;;16.42;15.43;;;;;;;27.85;49.65;100632.72;5011492;28;96857;-76
2022/06/28 09:59:19;;;;;;;;;;;;;;;27.62;49.59;100627.75;5008132;28;101233;-76
2022/06/28 10:01:45;;;;;;;15.85;14.90;;;;;;;27.52;50.01;100627.88;5010166;28;101316;-79
2022/06/28 10:04:10;;;;;;;16.25;15.10;;;;;;;27.94;49.76;100629.91;5009180;28;96880;-77
2022/06/28 10:06:36;;;;;;;15.93;14.90;;;;;;;28.24;49.26;100627.75;5003122;28;96996;-77
2022/06/28 10:09:06;;;;;;;15.85;14.95;;;;;;;28.26;48.81;100611.41;5003840;28;101868;-78
2022/06/28 10:15:01;;;;;;;16.63;15.20;;;;;;;28.04;48.57;100619.00;5014676;27;101051;-79
2022/06/28 10:17:17;;;;;;;15.85;14.95;;;;;;;28.27;48.66;100616.63;5022467;28;97420;-78
2022/06/28 10:19:43;;;;;;;17.02;15.63;;;;;;;28.08;48.10;100622.25;5001240;28;101317;-80
2022/06/28 10:22:10;;;;;;;16.98;15.80;;;;;;;27.86;48.49;100624.44;5016339;28;98355;-78
2022/06/28 10:24:54;;;;;;;16.38;15.18;;;;;;;27.79;48.17;100619.84;4997731;28;97116;-77
2022/06/28 10:27:20;;;;;;;16.55;15.45;;;;;;;27.67;48.45;100611.13;4997607;28;97092;-76
2022/06/28 10:29:57;;;;;;;16.90;15.88;;;;;;;27.63;48.74;100625.91;5044028;27;101120;-78
2022/06/28 10:32:41;;;;;;;16.42;15.43;;;;;;;27.63;48.52;100625.91;5036376;27;101285;-77
2022/06/28 10:35:07;;;;;;;16.17;15.20;;;;;;;27.71;48.17;100626.00;5029197;28;96865;-78
2022/06/28 10:37:32;;;;;;;16.33;15.23;;;;;;;28.11;47.60;100630.03;4995438;28;97487;-77
2022/06/28 10:40:26;;;;;;;16.30;15.30;;;;;;;28.18;47.15;100628.38;5009354;28;100883;-77
2022/06/28 10:42:52;;;;;;;17.20;16.00;;;;;;;28.24;47.25;100635.00;5028684;28;100917;-76
2022/06/28 10:45:22;;;;;;;16.75;15.75;;;;;;;28.33;47.26;100624.09;5006732;28;98657;-76
2022/06/28 10:48:06;;;;;;;16.95;15.82;;;;;;;28.28;46.89;100634.53;4993770;28;97273;-78
2022/06/28 10:50:54;;;;;;;16.98;15.77;;;;;;;28.25;47.27;100626.75;5010439;28;101692;-76
2022/06/28 10:53:20;;;;;;;18.48;16.95;;;;;;;27.92;47.89;100641.84;5026317;28;101194;-77
2022/06/28 10:56:14;;;;;;;17.70;16.27;;;;;;;27.52;48.39;100641.34;5011009;28;97737;-76
2022/06/28 10:58:59;;;;;;;20.80;15.77;;;;;;;27.34;49.50;100647.72;5029864;28;98320;-77
2022/06/28 11:01:40;;;;;;;18.02;16.55;;;;;;;27.10;49.53;100625.72;5006751;28;101260;-77
2022/06/28 11:04:12;;;;;;;;;;;;;;;27.08;50.16;100656.50;5031250;28;98444;-78
2022/06/28 11:07:20;;;;;;;17.85;16.30;;;;;;;27.30;49.45;100655.25;5019318;28;97827;-77
2022/06/28 11:09:52;;;;;;;17.42;16.23;;;;;;;27.60;49.12;100648.63;5012074;28;97139;-78
2022/06/28 11:12:24;;;;;;;18.73;16.70;;;;;;;27.88;49.52;100651.28;5011539;28;101747;-77
2022/06/28 11:14:58;;;;;;;25.23;17.70;;;;;;;27.96;48.96;100637.84;5012359;28;101430;-79
2022/06/28 11:17:30;;;;;;;19.48;17.73;;;;;;;28.05;48.01;100657.66;4994984;28;96744;-80
2022/06/28 11:20:02;;;;;;;19.90;18.27;;;;;;;28.12;47.85;100651.44;5013318;28;96895;-77
2022/06/28 11:22:31;;;;;;;17.67;16.20;;;;;;;28.09;47.67;100638.28;5013023;28;101503;-77
2022/06/28 11:24:59;;;;;;;26.13;17.97;;;;;;;28.29;47.76;100635.38;5022356;28;97908;-78
2022/06/28 11:27:26;;;;;;;18.95;17.20;;;;;;;28.21;47.80;100646.94;5008591;28;97470;-77
2022/06/28 11:29:54;;;;;;;17.17;16.08;;;;;;;27.98;47.58;100652.00;4990717;28;96898;-81